Time;durP1;ratioP1;P1;durP2;ratioP2;P2;SDS_P1;SDS_P2;PMS_P1;PMS_P2;Temp;Humidity;BMP_temperature;BMP_pressure;BME280_temperature;BME280_humidity;BME280_pressure;Samples;Min_cycle;Max_cycle;Signal;HPM_P1;HPM_P2
2023/11/24 00:01:34;;;;;;;6.30;1.90;;;;;;;5.82;66.37;98146.36;104780;1267;59298;-51
2023/11/24 00:04:04;;;;;;;8.50;2.40;;;;;;;5.83;66.28;98145.67;105240;1269;59275;-52
2023/11/24 00:06:32;;;;;;;8.00;2.90;;;;;;;5.85;66.32;98147.92;106056;1269;63275;-50
2023/11/24 00:09:00;;;;;;;7.00;3.50;;;;;;;5.82;66.47;98147.70;105115;1269;60101;-53
2023/11/24 00:11:28;;;;;;;11.40;6.90;;;;;;;5.78;66.41;98144.77;104403;1267;64310;-49
2023/11/24 00:13:55;;;;;;;6.30;2.20;;;;;;;5.72;66.54;98142.54;104428;1270;59804;-50
2023/11/24 00:16:23;;;;;;;8.10;3.20;;;;;;;5.73;66.60;98141.74;105314;1263;59692;-50
2023/11/24 00:18:51;;;;;;;7.60;3.70;;;;;;;5.75;66.63;98143.30;104502;1267;64152;-50
2023/11/24 00:21:19;;;;;;;8.80;3.50;;;;;;;5.73;66.66;98140.92;104414;1270;61318;-50
2023/11/24 00:23:46;;;;;;;8.10;2.60;;;;;;;5.68;66.76;98135.62;104506;1269;62523;-49
2023/11/24 00:26:17;;;;;;;11.90;7.00;;;;;;;5.60;67.06;98134.45;104602;1270;59779;-49
2023/11/24 00:28:55;;;;;;;7.70;2.60;;;;;;;5.56;67.16;98131.70;104451;1270;59580;-51
2023/11/24 00:31:25;;;;;;;8.20;2.70;;;;;;;5.59;67.13;98125.17;106078;1266;64108;-51
2023/11/24 00:33:55;;;;;;;8.80;3.70;;;;;;;5.62;67.10;98131.38;105067;1270;60444;-50
2023/11/24 00:36:23;;;;;;;7.90;3.90;;;;;;;5.59;67.20;98128.83;105463;1267;62469;-51
2023/11/24 00:38:51;;;;;;;7.80;3.00;;;;;;;5.53;67.30;98115.14;104490;1267;59956;-50
2023/11/24 00:41:19;;;;;;;9.40;4.30;;;;;;;5.46;67.52;98111.45;104495;1266;59746;-49
2023/11/24 00:43:47;;;;;;;6.90;3.00;;;;;;;5.44;67.48;98108.12;104786;1267;64719;-50
2023/11/24 00:46:17;;;;;;;8.70;3.10;;;;;;;5.47;67.27;98107.50;105420;1267;60176;-51
2023/11/24 00:48:45;;;;;;;7.40;3.20;;;;;;;5.49;67.22;98101.81;104374;1266;62619;-48
2023/11/24 00:51:13;;;;;;;7.30;3.30;;;;;;;5.46;67.24;98096.17;104391;1267;59726;-51
2023/11/24 00:53:40;;;;;;;10.30;4.40;;;;;;;5.41;67.37;98090.88;104683;1267;59754;-49
2023/11/24 00:56:08;;;;;;;9.90;3.00;;;;;;;5.36;67.49;98080.00;104563;1267;63095;-48
2023/11/24 00:58:36;;;;;;;6.90;2.40;;;;;;;5.32;67.50;98081.33;105635;1267;62440;-50
2023/11/24 01:01:04;;;;;;;7.40;3.30;;;;;;;5.33;67.37;98073.73;104411;1270;63721;-51
2023/11/24 01:03:32;;;;;;;8.50;4.10;;;;;;;5.36;67.42;98072.70;105209;1269;59621;-51
2023/11/24 01:06:03;;;;;;;8.60;3.60;;;;;;;5.40;67.36;98069.59;105033;1266;59716;-49
2023/11/24 01:08:30;;;;;;;6.50;2.70;;;;;;;5.38;67.45;98061.54;105002;1267;64185;-49
2023/11/24 01:10:58;;;;;;;6.60;2.60;;;;;;;5.34;67.54;98059.67;104964;1267;61426;-49
2023/11/24 01:13:26;;;;;;;13.20;7.90;;;;;;;5.29;67.68;98053.09;105354;1267;64470;-50
2023/11/24 01:15:54;;;;;;;8.20;3.30;;;;;;;5.28;67.63;98045.16;104367;1267;60314;-53
2023/11/24 01:18:22;;;;;;;7.60;2.70;;;;;;;5.32;67.74;98035.55;104377;1269;59695;-49
2023/11/24 01:20:50;;;;;;;7.80;2.70;;;;;;;5.34;67.73;98037.25;104399;1269;64524;-48
2023/11/24 01:23:17;;;;;;;11.40;3.90;;;;;;;5.34;67.69;98035.70;104445;1267;61525;-50
2023/11/24 01:25:46;;;;;;;8.40;2.80;;;;;;;5.29;67.78;98031.93;105034;1267;62462;-49
2023/11/24 01:28:14;;;;;;;7.20;2.60;;;;;;;5.23;67.98;98023.55;104896;1264;59736;-48
2023/11/24 01:30:43;;;;;;;6.80;2.80;;;;;;;5.19;68.19;98019.58;105122;1266;59608;-50
2023/11/24 01:33:11;;;;;;;8.60;2.80;;;;;;;5.23;68.11;98014.02;105947;1262;62927;-50
2023/11/24 01:35:38;;;;;;;6.80;2.20;;;;;;;5.28;68.08;98006.80;105205;1266;60243;-57
2023/11/24 01:38:06;;;;;;;7.90;3.10;;;;;;;5.30;68.07;98000.50;105527;1263;62479;-56
2023/11/24 01:40:34;;;;;;;7.70;2.70;;;;;;;5.29;68.30;97995.89;106602;1261;59933;-56
2023/11/24 01:43:02;;;;;;;9.60;2.30;;;;;;;5.26;68.23;97996.40;105370;1261;59567;-55
2023/11/24 01:45:30;;;;;;;7.60;2.70;;;;;;;5.24;68.26;97983.83;104556;1266;63087;-54
2023/11/24 01:47:58;;;;;;;6.10;2.50;;;;;;;5.29;68.13;97982.14;106218;1264;60113;-56
2023/11/24 01:50:26;;;;;;;7.80;3.00;;;;;;;5.32;68.02;97990.90;104886;1264;62525;-56
2023/11/24 01:52:54;;;;;;;14.00;7.10;;;;;;;5.33;68.09;97977.29;106516;1262;59743;-56
2023/11/24 01:55:23;;;;;;;7.00;2.70;;;;;;;5.31;68.19;97981.84;104787;1266;59570;-57
2023/11/24 01:57:52;;;;;;;7.40;2.40;;;;;;;5.27;68.19;97976.84;104777;1262;63111;-57
2023/11/24 02:00:20;;;;;;;6.50;2.30;;;;;;;5.26;68.15;97974.16;104873;1269;61854;-56
2023/11/24 02:02:48;;;;;;;7.00;3.10;;;;;;;5.29;68.13;97959.40;104678;1263;62514;-55
2023/11/24 02:05:17;;;;;;;5.50;1.70;;;;;;;5.33;68.21;97956.94;104912;1264;59832;-56
2023/11/24 02:07:45;;;;;;;7.30;2.30;;;;;;;5.34;68.14;97953.89;104959;1269;59670;-56
2023/11/24 02:10:13;;;;;;;8.60;2.70;;;;;;;5.33;68.26;97942.14;105244;1264;62816;-56
2023/11/24 02:12:41;;;;;;;5.40;1.80;;;;;;;5.29;68.27;97936.64;106581;1263;61506;-58
2023/11/24 02:15:09;;;;;;;6.80;1.70;;;;;;;5.26;68.25;97934.85;105267;1264;63749;-56
2023/11/24 02:17:37;;;;;;;12.60;3.90;;;;;;;5.29;68.24;97927.42;105222;1263;59650;-56
2023/11/24 02:20:07;;;;;;;5.30;2.00;;;;;;;5.35;68.16;97924.23;105378;1263;59541;-56
2023/11/24 02:22:42;;;;;;;9.30;5.80;;;;;;;5.39;68.07;97917.58;105242;1263;65391;-56
2023/11/24 02:25:10;;;;;;;6.40;1.30;;;;;;;5.40;68.09;97911.91;105256;1263;61903;-57
2023/11/24 02:27:38;;;;;;;8.50;2.40;;;;;;;5.36;68.01;97900.42;105169;1264;63781;-57
2023/11/24 02:30:07;;;;;;;6.50;1.80;;;;;;;5.32;68.09;97895.00;104555;1264;59987;-56
2023/11/24 02:32:35;;;;;;;5.00;1.70;;;;;;;5.33;68.01;97895.00;105530;1264;59710;-56
2023/11/24 02:35:04;;;;;;;5.50;1.90;;;;;;;5.41;67.80;97891.13;107680;1264;64595;-58
2023/11/24 02:37:32;;;;;;;5.20;1.50;;;;;;;5.45;67.68;97888.98;105192;1264;61363;-56
2023/11/24 02:40:00;;;;;;;6.10;2.50;;;;;;;5.45;67.70;97893.02;104724;1264;63781;-57
2023/11/24 02:42:28;;;;;;;6.20;2.00;;;;;;;5.43;67.75;97883.15;104667;1261;59638;-55
2023/11/24 02:44:57;;;;;;;6.30;2.80;;;;;;;5.41;67.80;97878.80;105207;1264;59635;-56
2023/11/24 02:47:25;;;;;;;6.70;2.70;;;;;;;5.48;67.58;97873.94;105294;1264;62898;-55
2023/11/24 02:49:55;;;;;;;9.90;2.80;;;;;;;5.56;67.46;97871.36;106704;1263;60270;-56
2023/11/24 02:52:22;;;;;;;5.10;2.20;;;;;;;5.59;67.30;97869.14;104910;1263;63690;-55
2023/11/24 02:54:52;;;;;;;5.90;2.70;;;;;;;5.60;67.27;97876.89;105727;1263;59768;-57
2023/11/24 02:57:21;;;;;;;10.00;5.30;;;;;;;5.56;67.27;97870.28;105671;1263;60449;-58
2023/11/24 02:59:48;;;;;;;5.90;2.10;;;;;;;5.55;67.27;97865.38;104690;1263;64133;-57
2023/11/24 03:02:16;;;;;;;6.80;2.60;;;;;;;5.60;67.08;97854.95;104834;1266;61304;-55
2023/11/24 03:04:44;;;;;;;6.50;2.70;;;;;;;5.68;66.99;97847.27;105024;1259;64217;-58
2023/11/24 03:07:18;;;;;;;6.50;2.30;;;;;;;5.72;66.98;97841.42;105439;1259;59685;-55
2023/11/24 03:09:46;;;;;;;6.60;1.80;;;;;;;5.71;66.96;97843.80;106033;1257;59684;-55
2023/11/24 03:12:16;;;;;;;6.70;2.00;;;;;;;5.69;66.94;97842.97;105091;1257;64413;-55
2023/11/24 03:14:44;;;;;;;10.60;5.90;;;;;;;5.67;66.81;97833.98;105254;1258;61383;-57
2023/11/24 03:17:13;;;;;;;6.80;2.20;;;;;;;5.72;66.66;97828.58;105696;1257;64211;-56
2023/11/24 03:19:41;;;;;;;11.60;2.70;;;;;;;5.77;66.49;97837.11;105467;1257;59670;-59
2023/11/24 03:22:08;;;;;;;8.00;2.50;;;;;;;5.78;66.36;97826.35;104869;1264;60394;-56
2023/11/24 03:24:36;;;;;;;6.50;2.40;;;;;;;5.79;66.43;97820.77;105480;1258;62907;-56
2023/11/24 03:27:04;;;;;;;5.20;1.90;;;;;;;5.76;66.45;97812.13;107295;1257;61332;-58
2023/11/24 03:29:33;;;;;;;9.60;5.30;;;;;;;5.76;66.51;97808.14;106055;1257;62530;-56
2023/11/24 03:32:02;;;;;;;5.70;2.10;;;;;;;5.81;66.27;97807.71;105611;1258;59752;-58
2023/11/24 03:34:29;;;;;;;8.10;3.20;;;;;;;5.89;65.94;97806.48;106308;1257;59841;-58
2023/11/24 03:36:57;;;;;;;11.00;6.40;;;;;;;5.93;65.77;97804.14;105117;1263;62832;-58
2023/11/24 03:39:29;;;;;;;6.40;2.00;;;;;;;5.94;65.71;97795.58;105703;1257;61540;-59
2023/11/24 03:41:57;;;;;;;5.70;2.00;;;;;;;5.91;65.75;97794.94;104900;1261;63772;-58
2023/11/24 03:44:24;;;;;;;7.30;3.40;;;;;;;5.90;65.71;97778.39;105814;1257;59742;-55
2023/11/24 03:46:52;;;;;;;5.90;1.90;;;;;;;5.96;65.44;97769.66;105454;1257;59621;-56
2023/11/24 03:49:19;;;;;;;7.90;3.10;;;;;;;6.03;65.42;97760.39;105183;1257;62881;-56
2023/11/24 03:51:47;;;;;;;7.80;3.10;;;;;;;6.05;65.30;97756.92;105127;1257;61331;-56
2023/11/24 03:54:16;;;;;;;6.60;2.80;;;;;;;6.01;65.26;97760.26;105059;1260;63716;-57
2023/11/24 03:56:43;;;;;;;5.30;1.80;;;;;;;5.98;65.20;97747.88;104899;1260;60549;-58
2023/11/24 03:59:11;;;;;;;6.60;2.70;;;;;;;5.98;65.20;97743.81;105271;1258;60462;-57
2023/11/24 04:01:39;;;;;;;5.70;1.80;;;;;;;6.05;65.00;97723.65;105589;1260;64899;-55
2023/11/24 04:04:07;;;;;;;4.70;1.70;;;;;;;6.10;65.04;97721.88;104947;1257;61446;-55
2023/11/24 04:06:35;;;;;;;5.70;1.50;;;;;;;6.10;64.98;97712.61;106723;1257;62470;-56
2023/11/24 04:09:04;;;;;;;10.00;6.10;;;;;;;6.09;64.90;97695.34;108763;1258;58967;-57
2023/11/24 04:11:33;;;;;;;6.40;2.30;;;;;;;6.08;64.83;97694.42;105592;1260;60530;-56
2023/11/24 04:14:02;;;;;;;7.50;1.50;;;;;;;6.14;64.67;97698.19;106146;1258;64842;-56
2023/11/24 04:16:29;;;;;;;5.60;1.80;;;;;;;6.20;64.54;97695.82;107276;1257;61491;-56
2023/11/24 04:18:57;;;;;;;9.00;3.30;;;;;;;6.20;64.38;97695.14;105625;1261;62587;-57
2023/11/24 04:21:25;;;;;;;5.20;1.60;;;;;;;6.18;64.41;97680.73;105083;1258;60546;-58
2023/11/24 04:23:53;;;;;;;8.70;5.00;;;;;;;6.13;64.44;97677.20;106795;1257;59138;-58
2023/11/24 04:26:20;;;;;;;4.60;1.60;;;;;;;6.11;64.45;97679.66;105434;1257;64907;-57
2023/11/24 04:28:48;;;;;;;6.60;2.40;;;;;;;6.16;64.32;97674.63;106611;1261;60709;-57
2023/11/24 04:31:16;;;;;;;10.40;5.70;;;;;;;6.21;64.20;97677.54;105114;1257;63777;-57
2023/11/24 04:33:43;;;;;;;6.10;2.60;;;;;;;6.21;64.26;97671.49;105901;1259;60472;-57
2023/11/24 04:36:11;;;;;;;6.00;2.60;;;;;;;6.17;64.22;97686.05;105143;1258;60373;-57
2023/11/24 04:38:39;;;;;;;5.40;1.90;;;;;;;6.14;64.26;97701.07;105435;1257;63701;-57
2023/11/24 04:41:07;;;;;;;6.20;1.60;;;;;;;6.13;64.38;97724.91;105066;1257;61344;-55
2023/11/24 04:43:34;;;;;;;9.20;5.40;;;;;;;6.15;64.25;97742.73;105069;1263;62432;-57
2023/11/24 04:46:04;;;;;;;8.40;3.00;;;;;;;6.23;64.19;97733.55;105476;1263;60255;-56
2023/11/24 04:48:35;;;;;;;6.30;2.50;;;;;;;6.28;64.17;97735.55;105940;1257;60759;-56
2023/11/24 04:51:05;;;;;;;7.10;2.40;;;;;;;6.28;64.03;97738.42;108783;1257;63724;-57
2023/11/24 04:53:35;;;;;;;5.20;2.10;;;;;;;6.29;63.97;97739.77;106444;1257;60600;-54
2023/11/24 04:56:08;;;;;;;5.60;1.70;;;;;;;6.31;63.87;97745.45;105619;1257;76502;-56
2023/11/24 04:58:35;;;;;;;8.90;5.50;;;;;;;6.40;63.77;97748.56;105003;1257;60572;-50
2023/11/24 05:01:03;;;;;;;5.60;1.90;;;;;;;6.47;63.62;97741.69;105075;1257;60609;-53
2023/11/24 05:03:31;;;;;;;6.40;2.20;;;;;;;6.50;63.45;97737.88;104871;1257;63712;-51
2023/11/24 05:05:59;;;;;;;8.00;5.40;;;;;;;6.49;63.61;97735.15;105724;1257;60428;-50
2023/11/24 05:08:27;;;;;;;5.50;2.30;;;;;;;6.48;63.61;97725.17;105382;1257;63702;-52
2023/11/24 05:10:57;;;;;;;6.30;3.40;;;;;;;6.48;63.50;97717.53;104910;1257;60615;-53
2023/11/24 05:13:27;;;;;;;7.00;2.30;;;;;;;6.52;63.42;97718.22;105486;1259;60638;-57
2023/11/24 05:15:57;;;;;;;8.00;2.30;;;;;;;6.62;63.27;97709.28;105697;1254;63847;-57
2023/11/24 05:18:28;;;;;;;8.60;5.50;;;;;;;6.70;63.16;97723.45;105317;1257;61356;-56
2023/11/24 05:20:56;;;;;;;6.80;2.60;;;;;;;6.71;63.11;97738.84;108687;1257;62788;-57
2023/11/24 05:23:24;;;;;;;6.80;2.90;;;;;;;6.72;63.15;97739.34;108924;1255;58675;-56
2023/11/24 05:25:53;;;;;;;8.20;5.20;;;;;;;6.70;63.06;97764.73;109023;1254;58275;-56
2023/11/24 05:28:20;;;;;;;6.70;3.30;;;;;;;6.69;63.02;97766.63;109044;1254;65350;-56
2023/11/24 05:30:47;;;;;;;8.20;4.90;;;;;;;6.76;62.83;97770.70;109077;1254;61400;-56
2023/11/24 05:33:15;;;;;;;7.00;2.60;;;;;;;6.87;62.64;97773.96;109103;1254;63774;-58
2023/11/24 05:35:44;;;;;;;9.40;5.30;;;;;;;6.88;62.30;97782.28;106875;1255;60530;-55
2023/11/24 05:38:12;;;;;;;5.30;1.90;;;;;;;6.88;62.30;97778.14;104938;1257;60482;-55
2023/11/24 05:40:39;;;;;;;7.90;4.80;;;;;;;6.86;62.34;97768.80;106252;1254;64897;-56
2023/11/24 05:43:10;;;;;;;5.70;1.70;;;;;;;6.85;62.27;97767.16;104991;1254;61442;-56
2023/11/24 05:45:41;;;;;;;7.30;2.40;;;;;;;6.87;62.22;97765.01;109072;1254;62556;-56
2023/11/24 05:48:09;;;;;;;6.00;2.20;;;;;;;6.95;62.05;97758.64;105468;1254;60539;-56
2023/11/24 05:50:39;;;;;;;10.90;5.50;;;;;;;6.98;62.00;97761.74;105104;1254;60661;-56
2023/11/24 05:53:07;;;;;;;5.40;1.70;;;;;;;6.97;62.07;97762.04;105791;1254;73884;-59
2023/11/24 05:55:34;;;;;;;10.70;5.50;;;;;;;6.94;62.09;97762.06;107280;1256;61415;-57
2023/11/24 05:58:05;;;;;;;6.30;2.60;;;;;;;6.90;61.92;97763.83;104914;1257;63831;-56
2023/11/24 06:00:33;;;;;;;5.60;2.20;;;;;;;6.89;61.87;97753.16;106680;1255;60440;-55
2023/11/24 06:03:01;;;;;;;10.40;5.70;;;;;;;6.96;61.77;97751.08;106445;1254;60523;-55
2023/11/24 06:05:30;;;;;;;6.10;3.10;;;;;;;7.01;61.64;97760.98;105015;1259;65397;-54
2023/11/24 06:08:02;;;;;;;9.00;5.20;;;;;;;7.02;61.65;97774.11;105743;1256;60354;-57
2023/11/24 06:10:38;;;;;;;6.10;2.50;;;;;;;6.99;61.53;97782.95;105847;1256;62505;-57
2023/11/24 06:13:06;;;;;;;11.30;5.70;;;;;;;6.95;61.68;97767.46;105198;1255;60552;-59
2023/11/24 06:15:34;;;;;;;4.80;2.30;;;;;;;6.94;61.64;97759.22;105740;1257;60514;-55
2023/11/24 06:18:04;;;;;;;4.20;1.30;;;;;;;6.97;61.46;97757.48;105081;1254;65382;-57
2023/11/24 06:20:32;;;;;;;7.60;4.70;;;;;;;7.02;61.36;97762.00;105678;1254;61995;-56
2023/11/24 06:23:04;;;;;;;5.40;2.00;;;;;;;7.05;61.37;97764.17;105575;1254;65223;-59
2023/11/24 06:25:32;;;;;;;7.80;3.10;;;;;;;7.04;61.44;97759.52;105065;1257;60462;-55
2023/11/24 06:27:59;;;;;;;7.80;4.80;;;;;;;7.02;61.42;97754.38;105799;1259;60520;-56
2023/11/24 06:30:27;;;;;;;6.00;2.00;;;;;;;7.00;61.38;97749.52;105314;1254;64986;-56
2023/11/24 06:32:55;;;;;;;5.00;1.60;;;;;;;6.99;61.44;97751.95;105127;1259;60396;-55
2023/11/24 06:35:24;;;;;;;6.70;3.00;;;;;;;6.97;61.44;97741.64;105837;1259;63780;-56
2023/11/24 06:37:52;;;;;;;8.00;4.00;;;;;;;7.02;61.37;97737.08;105187;1257;60535;-53
2023/11/24 06:40:20;;;;;;;5.80;2.30;;;;;;;7.09;61.38;97726.96;104989;1259;60421;-55
2023/11/24 06:42:49;;;;;;;8.20;4.70;;;;;;;7.14;61.30;97730.80;105024;1254;64899;-56
2023/11/24 06:45:19;;;;;;;5.30;1.60;;;;;;;7.13;61.09;97744.83;105209;1254;61394;-56
2023/11/24 06:47:50;;;;;;;5.30;2.40;;;;;;;7.10;60.91;97765.52;105810;1257;62482;-57
2023/11/24 06:50:18;;;;;;;5.40;1.60;;;;;;;7.08;61.19;97768.55;105121;1259;60562;-57
2023/11/24 06:52:45;;;;;;;7.20;4.20;;;;;;;7.06;61.21;97753.58;105545;1259;60482;-57
2023/11/24 06:55:13;;;;;;;4.10;1.30;;;;;;;7.08;61.26;97764.34;106716;1254;65373;-56
2023/11/24 06:57:42;;;;;;;4.50;1.50;;;;;;;7.16;61.23;97780.98;105426;1256;60841;-56
2023/11/24 07:00:16;;;;;;;6.60;3.80;;;;;;;7.21;61.04;97769.63;105140;1256;63696;-52
2023/11/24 07:02:45;;;;;;;4.00;1.00;;;;;;;7.22;61.02;97766.52;105075;1260;60517;-55
2023/11/24 07:05:12;;;;;;;8.10;4.20;;;;;;;7.20;61.04;97762.49;106204;1254;60475;-53
2023/11/24 07:07:40;;;;;;;4.70;1.50;;;;;;;7.19;61.04;97759.09;107148;1257;73768;-53
2023/11/24 07:10:11;;;;;;;4.70;1.60;;;;;;;7.20;60.99;97758.32;107203;1257;60322;-61
2023/11/24 07:12:42;;;;;;;7.00;3.20;;;;;;;7.23;60.98;97766.95;107976;1256;62733;-59
2023/11/24 07:15:11;;;;;;;4.00;1.10;;;;;;;7.31;60.64;97774.31;106268;1254;60325;-70
2023/11/24 07:17:39;;;;;;;6.40;3.50;;;;;;;7.37;60.14;97786.14;106509;1254;60437;-60
2023/11/24 07:20:11;;;;;;;3.50;1.50;;;;;;;7.43;60.01;97778.67;105790;1254;66846;-62
2023/11/24 07:22:41;;;;;;;8.40;3.50;;;;;;;7.45;60.01;97785.66;105499;1257;61773;-63
2023/11/24 07:25:10;;;;;;;5.20;1.50;;;;;;;7.46;60.00;97776.84;104955;1254;62436;-62
2023/11/24 07:27:38;;;;;;;6.40;3.30;;;;;;;7.46;60.15;97786.34;107192;1257;60396;-60
2023/11/24 07:30:07;;;;;;;4.70;1.50;;;;;;;7.44;60.46;97789.41;107126;1257;60361;-62
2023/11/24 07:32:34;;;;;;;5.90;1.20;;;;;;;7.48;60.53;97784.98;107127;1254;64870;-61
2023/11/24 07:35:03;;;;;;;7.40;3.20;;;;;;;7.55;60.37;97779.02;105989;1259;60685;-59
2023/11/24 07:37:31;;;;;;;6.00;3.10;;;;;;;7.56;60.31;97783.91;105821;1260;62461;-61
2023/11/24 07:39:58;;;;;;;4.80;1.60;;;;;;;7.57;60.35;97775.35;105043;1254;60588;-60
2023/11/24 07:42:26;;;;;;;3.90;1.40;;;;;;;7.52;60.39;97771.30;105062;1260;60454;-61
2023/11/24 07:44:54;;;;;;;8.30;3.80;;;;;;;7.48;60.92;97773.48;105146;1254;76061;-60
2023/11/24 07:47:23;;;;;;;3.90;1.30;;;;;;;7.46;61.28;97766.77;105731;1259;60357;-59
2023/11/24 07:49:53;;;;;;;7.70;3.60;;;;;;;7.49;61.63;97775.16;106626;1257;62502;-58
2023/11/24 07:52:21;;;;;;;5.20;2.30;;;;;;;7.51;61.78;97771.60;105560;1254;60368;-59
2023/11/24 07:54:48;;;;;;;7.70;3.70;;;;;;;7.46;61.84;97772.63;105792;1254;60428;-58
2023/11/24 07:57:16;;;;;;;3.60;1.00;;;;;;;7.42;62.06;97771.55;105449;1258;65573;-62
2023/11/24 07:59:43;;;;;;;6.80;3.50;;;;;;;7.38;62.26;97775.09;105263;1254;61293;-63
2023/11/24 08:02:11;;;;;;;5.50;1.20;;;;;;;7.36;62.45;97778.77;105138;1257;63816;-61
2023/11/24 08:04:40;;;;;;;6.60;3.30;;;;;;;7.41;62.43;97778.42;108272;1253;58348;-63
2023/11/24 08:07:09;;;;;;;5.80;2.00;;;;;;;7.50;62.25;97779.76;105688;1253;60747;-59
2023/11/24 08:09:37;;;;;;;3.80;1.60;;;;;;;7.55;61.97;97788.80;105930;1254;64132;-62
2023/11/24 08:12:05;;;;;;;6.80;3.60;;;;;;;7.54;61.70;97810.02;106503;1253;60459;-61
2023/11/24 08:14:32;;;;;;;3.60;1.00;;;;;;;7.51;61.65;97810.52;105353;1254;63800;-62
2023/11/24 08:17:00;;;;;;;8.20;4.60;;;;;;;7.45;61.80;97806.41;106566;1254;60552;-63
2023/11/24 08:19:27;;;;;;;4.10;1.20;;;;;;;7.40;62.12;97805.89;105250;1259;60430;-64
2023/11/24 08:21:55;;;;;;;7.60;3.50;;;;;;;7.44;62.14;97803.79;105287;1259;65042;-64
2023/11/24 08:24:23;;;;;;;4.30;1.30;;;;;;;7.53;62.07;97790.23;105223;1254;61535;-61
2023/11/24 08:26:51;;;;;;;7.00;3.20;;;;;;;7.58;61.92;97789.51;105125;1254;63722;-61
2023/11/24 08:29:18;;;;;;;4.00;1.40;;;;;;;7.59;61.60;97789.34;105281;1259;60418;-64
2023/11/24 08:31:48;;;;;;;6.20;3.20;;;;;;;7.56;61.35;97790.98;105696;1260;60571;-62
2023/11/24 08:34:16;;;;;;;6.10;2.00;;;;;;;7.51;61.13;97788.70;106164;1254;64829;-61
2023/11/24 08:36:45;;;;;;;5.70;3.30;;;;;;;7.47;61.07;97781.62;105090;1256;61646;-65
2023/11/24 08:39:13;;;;;;;5.40;2.50;;;;;;;7.48;61.07;97784.54;105389;1259;62667;-63
2023/11/24 08:41:45;;;;;;;7.80;3.40;;;;;;;7.53;60.91;97786.32;105064;1260;60560;-61
2023/11/24 08:44:12;;;;;;;1.90;0.70;;;;;;;7.61;60.58;97784.83;106304;1259;60342;-61
2023/11/24 08:46:42;;;;;;;6.60;3.60;;;;;;;7.63;60.40;97777.46;106531;1253;63768;-61
2023/11/24 08:49:10;;;;;;;4.10;1.10;;;;;;;7.62;60.24;97777.14;105594;1254;61425;-62
2023/11/24 08:51:41;;;;;;;7.10;3.30;;;;;;;7.64;59.89;97772.94;107990;1254;63675;-60
2023/11/24 08:54:10;;;;;;;4.30;1.10;;;;;;;7.69;59.84;97772.27;108106;1254;60542;-62
2023/11/24 08:56:38;;;;;;;6.50;3.10;;;;;;;7.74;59.88;97776.27;106494;1254;60358;-64
2023/11/24 08:59:09;;;;;;;4.20;1.50;;;;;;;7.80;59.59;97781.29;105538;1254;63741;-66
2023/11/24 09:01:37;;;;;;;5.70;2.80;;;;;;;7.91;59.12;97775.80;106506;1254;70588;-59
2023/11/24 09:04:05;;;;;;;4.90;1.80;;;;;;;7.97;58.59;97771.94;105743;1257;63901;-59
2023/11/24 09:06:37;;;;;;;7.20;3.20;;;;;;;8.00;58.42;97767.95;106604;1258;60434;-61
2023/11/24 09:09:07;;;;;;;5.60;3.20;;;;;;;8.00;58.26;97776.21;105549;1254;61323;-62
2023/11/24 09:11:35;;;;;;;4.50;0.90;;;;;;;7.98;58.26;97762.70;105104;1259;64898;-61
2023/11/24 09:14:04;;;;;;;8.20;3.30;;;;;;;7.98;58.32;97755.58;107223;1254;60443;-62
2023/11/24 09:16:32;;;;;;;3.90;1.20;;;;;;;7.99;58.33;97752.84;106599;1254;62474;-61
2023/11/24 09:19:00;;;;;;;8.20;3.10;;;;;;;7.96;58.06;97762.45;105646;1259;60537;-63
2023/11/24 09:21:33;;;;;;;4.10;1.30;;;;;;;8.00;58.11;97752.48;106436;1258;60440;-59
2023/11/24 09:24:01;;;;;;;6.10;2.80;;;;;;;8.06;57.80;97760.23;105921;1258;64954;-65
2023/11/24 09:26:29;;;;;;;6.20;2.90;;;;;;;8.11;57.48;97749.31;107518;1254;60710;-58
2023/11/24 09:29:01;;;;;;;6.00;1.70;;;;;;;8.11;57.05;97753.88;105487;1254;65289;-55
2023/11/24 09:31:30;;;;;;;6.10;2.80;;;;;;;8.13;57.31;97734.25;105629;1254;60454;-56
2023/11/24 09:33:58;;;;;;;3.90;1.40;;;;;;;8.15;57.19;97736.95;107369;1254;61164;-63
2023/11/24 09:36:27;;;;;;;5.60;2.60;;;;;;;8.16;56.96;97732.48;106480;1253;67370;-59
2023/11/24 09:38:58;;;;;;;5.30;2.60;;;;;;;8.17;56.92;97747.39;107611;1258;62217;-56
2023/11/24 09:41:26;;;;;;;3.10;0.90;;;;;;;8.17;56.94;97751.42;105720;1254;74978;-58
2023/11/24 09:43:55;;;;;;;5.30;2.30;;;;;;;8.14;56.76;97754.19;107832;1254;61099;-59
2023/11/24 09:46:23;;;;;;;5.50;2.40;;;;;;;8.21;56.48;97750.65;106677;1256;60584;-58
2023/11/24 09:48:55;;;;;;;3.10;1.10;;;;;;;8.29;56.30;97754.63;106246;1253;63778;-58
2023/11/24 09:51:32;;;;;;;5.10;2.20;;;;;;;8.32;55.94;97758.63;109103;1254;60618;-59
2023/11/24 09:54:02;;;;;;;3.30;0.80;;;;;;;8.34;55.78;97741.59;108970;1254;64351;-57
2023/11/24 09:56:30;;;;;;;5.50;2.00;;;;;;;8.34;55.63;97762.09;105224;1259;60552;-58
2023/11/24 09:58:57;;;;;;;5.30;2.30;;;;;;;8.32;55.47;97750.95;107171;1254;59275;-58
2023/11/24 10:01:26;;;;;;;3.40;1.00;;;;;;;8.32;55.54;97754.11;107414;1254;65902;-60
2023/11/24 10:03:55;;;;;;;5.70;2.60;;;;;;;8.31;55.51;97751.20;107254;1254;61425;-59
2023/11/24 10:06:23;;;;;;;3.70;1.00;;;;;;;8.30;55.60;97755.36;109159;1254;64120;-60
2023/11/24 10:08:50;;;;;;;7.00;1.90;;;;;;;8.29;55.38;97768.80;109050;1254;58524;-59
2023/11/24 10:11:27;;;;;;;4.90;1.90;;;;;;;8.29;55.30;97767.55;109104;1258;58386;-59
2023/11/24 10:13:56;;;;;;;2.40;0.70;;;;;;;8.32;55.63;97778.71;105299;1258;64945;-58
2023/11/24 10:16:24;;;;;;;5.10;2.30;;;;;;;8.31;55.32;97794.85;109282;1254;72555;-60
2023/11/24 10:18:55;;;;;;;5.00;2.20;;;;;;;8.29;55.32;97784.41;109084;1254;66299;-60
2023/11/24 10:21:23;;;;;;;3.80;0.80;;;;;;;8.33;55.20;97777.33;109137;1254;58244;-59
2023/11/24 10:24:00;;;;;;;3.80;1.50;;;;;;;8.40;55.20;97763.04;106618;1254;60402;-59
2023/11/24 10:26:29;;;;;;;5.80;2.10;;;;;;;8.40;55.30;97767.41;106667;1255;63996;-61
2023/11/24 10:28:57;;;;;;;8.10;2.40;;;;;;;8.38;55.53;97769.44;106808;1254;63759;-58
2023/11/24 10:31:26;;;;;;;5.40;2.40;;;;;;;8.39;55.34;97775.92;105851;1254;62501;-58
2023/11/24 10:33:53;;;;;;;3.10;0.80;;;;;;;8.42;55.08;97762.84;105232;1256;60562;-60
2023/11/24 10:36:24;;;;;;;5.90;2.50;;;;;;;8.44;54.92;97750.70;105270;1259;60456;-59
2023/11/24 10:39:00;;;;;;;3.80;0.70;;;;;;;8.45;54.71;97750.30;106495;1254;65011;-59
2023/11/24 10:41:29;;;;;;;2.90;0.80;;;;;;;8.43;54.09;97750.49;108975;1254;61320;-58
2023/11/24 10:43:56;;;;;;;8.80;3.70;;;;;;;8.43;54.29;97745.36;106013;1257;63879;-57
2023/11/24 10:46:27;;;;;;;4.00;1.30;;;;;;;8.43;54.33;97753.73;105624;1259;60693;-59
2023/11/24 10:49:07;;;;;;;4.90;1.90;;;;;;;8.40;54.35;97751.81;105205;1254;62074;-58
2023/11/24 10:52:02;;;;;;;3.00;0.90;;;;;;;8.34;54.58;97760.65;106604;1256;76421;-55
2023/11/24 10:54:39;;;;;;;7.00;2.30;;;;;;;8.31;54.72;97759.85;105454;1254;61943;-56
2023/11/24 10:57:06;;;;;;;6.10;1.90;;;;;;;8.31;54.99;97747.02;106870;1258;64335;-58
2023/11/24 10:59:38;;;;;;;4.90;1.70;;;;;;;8.40;54.84;97753.70;105527;1258;60450;-58
2023/11/24 11:02:08;;;;;;;2.30;0.70;;;;;;;8.48;54.52;97751.95;105789;1254;60645;-60
2023/11/24 11:05:00;;;;;;;2.40;0.70;;;;;;;8.50;54.31;97750.17;105735;1254;65118;-58
2023/11/24 11:07:37;;;;;;;4.30;1.60;;;;;;;8.50;54.36;97749.88;105349;1254;61447;-59
2023/11/24 11:10:12;;;;;;;3.20;1.00;;;;;;;8.50;53.72;97749.84;109146;1254;63889;-60
2023/11/24 11:12:48;;;;;;;2.90;0.80;;;;;;;8.52;53.52;97747.79;108953;1254;58505;-57
2023/11/24 11:15:21;;;;;;;4.40;1.80;;;;;;;8.56;53.37;97749.34;109308;1254;58463;-56
2023/11/24 11:18:08;;;;;;;4.30;1.80;;;;;;;8.59;53.29;97750.37;109200;1253;67529;-56
2023/11/24 11:20:40;;;;;;;1.30;0.50;;;;;;;8.63;53.46;97744.14;109230;1258;61305;-58
2023/11/24 11:23:09;;;;;;;5.40;1.80;;;;;;;8.66;53.95;97743.80;109152;1254;62477;-61
2023/11/24 11:25:38;;;;;;;5.80;2.10;;;;;;;8.66;53.95;97753.59;108183;1254;60390;-58
2023/11/24 11:28:19;;;;;;;3.90;1.70;;;;;;;8.64;53.83;97756.16;107324;1258;58448;-56
2023/11/24 11:30:47;;;;;;;6.10;1.80;;;;;;;8.61;54.10;97754.78;105463;1254;63673;-57
2023/11/24 11:33:19;;;;;;;2.90;0.90;;;;;;;8.60;54.44;97747.88;106042;1254;61299;-58
2023/11/24 11:35:51;;;;;;;3.90;1.40;;;;;;;8.64;54.32;97754.33;105455;1260;64711;-58
2023/11/24 11:38:43;;;;;;;1.20;0.30;;;;;;;8.71;53.90;97754.97;105974;1260;60536;-58
2023/11/24 11:41:36;;;;;;;4.40;1.60;;;;;;;8.79;53.69;97761.59;105299;1255;61472;-58
2023/11/24 11:44:33;;;;;;;3.80;1.30;;;;;;;8.80;53.04;97774.70;105251;1254;63813;-60